createdAt,value
2023-02-01T00:04:15.584Z,5.07
2023-02-01T00:09:37.451Z,5.00
2023-02-01T00:14:59.509Z,4.47
2023-02-01T00:20:21.595Z,4.20
2023-02-01T00:25:43.712Z,4.25
2023-02-01T00:31:06.481Z,3.65
2023-02-01T00:36:28.497Z,3.67
2023-02-01T00:41:50.482Z,3.35
2023-02-01T00:47:12.563Z,2.72
2023-02-01T00:52:34.445Z,2.83
2023-02-01T00:57:56.290Z,2.40
2023-02-01T01:03:18.200Z,2.63
2023-02-01T01:08:41.456Z,2.38
2023-02-01T01:14:05.261Z,1.50
2023-02-01T01:19:27.164Z,1.27
2023-02-01T01:24:50.394Z,1.70
2023-02-01T01:30:12.622Z,1.83
2023-02-01T01:35:34.907Z,1.27
2023-02-01T01:40:56.764Z,1.02
2023-02-01T01:46:20.949Z,1.77
2023-02-01T01:51:47.411Z,1.08
2023-02-01T02:02:45.951Z,1.08
2023-02-01T02:08:07.884Z,3.53
2023-02-01T02:13:34.971Z,1.50
2023-02-01T02:19:48.136Z,1.70
2023-02-01T02:25:19.173Z,1.92
2023-02-01T02:31:08.117Z,2.53
2023-02-01T02:36:50.069Z,1.95
2023-02-01T02:42:14.980Z,1.85
2023-02-01T02:48:09.119Z,2.03
2023-02-01T02:53:40.879Z,1.80
2023-02-01T02:59:04.524Z,2.30
2023-02-01T03:04:26.373Z,2.08
2023-02-01T03:09:50.151Z,2.13
2023-02-01T03:15:13.752Z,2.17
2023-02-01T03:20:38.062Z,1.90
2023-02-01T03:26:01.873Z,1.95
2023-02-01T03:31:24.864Z,2.03
2023-02-01T03:36:57.453Z,2.33
2023-02-01T03:42:25.885Z,2.50
2023-02-01T03:47:51.185Z,2.17
2023-02-01T03:53:19.211Z,2.13
2023-02-01T03:58:41.103Z,3.15
2023-02-01T04:04:03.167Z,2.40
2023-02-01T04:09:25.015Z,2.50
2023-02-01T04:14:46.899Z,2.50
2023-02-01T04:20:09.612Z,2.42
2023-02-01T04:25:31.648Z,2.10
2023-02-01T04:30:53.619Z,2.97
2023-02-01T04:36:15.458Z,2.33
2023-02-01T04:41:37.331Z,2.40
2023-02-01T04:46:59.252Z,3.05
2023-02-01T04:52:21.145Z,2.88
2023-02-01T04:57:43.035Z,2.47
2023-02-01T05:03:04.999Z,2.88
2023-02-01T05:08:27.549Z,2.30
2023-02-01T05:13:49.477Z,2.53
2023-02-01T05:19:11.374Z,3.33
2023-02-01T05:24:33.246Z,2.30
2023-02-01T05:29:55.142Z,2.42
2023-02-01T05:35:17.140Z,3.53
2023-02-01T05:40:38.976Z,2.78
2023-02-01T05:46:00.881Z,2.45
2023-02-01T05:51:22.805Z,2.50
2023-02-01T05:56:44.676Z,2.75
2023-02-01T06:02:06.533Z,2.58
2023-02-01T06:07:29.765Z,2.85
2023-02-01T06:12:52.039Z,3.40
2023-02-01T06:18:13.900Z,2.17
2023-02-01T06:23:35.935Z,2.72
2023-02-01T06:28:57.836Z,2.65
2023-02-01T06:34:22.104Z,2.38
2023-02-01T06:39:44.170Z,2.05
2023-02-01T06:45:06.617Z,2.67
2023-02-01T06:50:28.646Z,2.78
2023-02-01T06:56:02.043Z,2.50
2023-02-01T07:01:23.917Z,2.30
2023-02-01T07:06:45.746Z,2.63
2023-02-01T07:12:07.902Z,3.35
2023-02-01T07:17:29.883Z,2.67
2023-02-01T07:22:56.855Z,3.38
2023-02-01T07:28:18.896Z,2.72
2023-02-01T07:33:40.767Z,3.17
2023-02-01T07:39:03.628Z,2.83
2023-02-01T07:44:25.478Z,3.03
2023-02-01T07:49:47.327Z,2.60
2023-02-01T07:55:09.801Z,3.97
2023-02-01T08:00:31.885Z,3.33
2023-02-01T08:05:56.716Z,3.35
2023-02-01T08:11:19.950Z,3.65
2023-02-01T08:16:41.834Z,3.60
2023-02-01T08:22:03.816Z,2.58
2023-02-01T08:27:25.663Z,3.33
2023-02-01T08:32:47.609Z,3.10
2023-02-01T08:38:09.455Z,2.65
2023-02-01T08:43:31.328Z,3.13
2023-02-01T08:48:53.643Z,5.15
2023-02-01T08:54:15.524Z,3.10
2023-02-01T08:59:37.420Z,4.13
2023-02-01T09:05:02.336Z,3.05
2023-02-01T09:10:34.697Z,3.50
2023-02-01T09:15:57.384Z,3.30
2023-02-01T09:21:19.285Z,3.05
2023-02-01T09:26:41.156Z,3.72
2023-02-01T09:32:04.708Z,3.25
2023-02-01T09:37:27.300Z,3.03
2023-02-01T09:43:04.346Z,3.10
2023-02-01T09:48:32.282Z,3.03
2023-02-01T09:54:09.124Z,3.20
2023-02-01T09:59:39.043Z,3.13
2023-02-01T10:05:02.160Z,3.00
2023-02-01T10:10:48.750Z,3.38
2023-02-01T10:16:29.532Z,4.03
2023-02-01T10:22:09.653Z,3.22
2023-02-01T10:27:36.559Z,3.63
2023-02-01T10:33:15.471Z,3.33
2023-02-01T10:38:37.712Z,3.03
2023-02-01T10:44:01.740Z,2.97
2023-02-01T10:49:39.410Z,2.72
2023-02-01T10:55:26.234Z,3.25
2023-02-01T11:01:06.924Z,3.42
2023-02-01T11:06:28.739Z,3.53
2023-02-01T11:11:50.540Z,3.83
2023-02-01T11:17:15.267Z,3.22
2023-02-01T11:22:37.117Z,3.72
2023-02-01T11:27:58.996Z,4.55
2023-02-01T11:33:24.980Z,4.22
2023-02-01T11:38:55.863Z,3.55
2023-02-01T11:44:32.019Z,3.30
2023-02-01T11:49:57.082Z,3.20
2023-02-01T11:55:31.145Z,4.18
2023-02-01T12:01:17.426Z,3.33
2023-02-01T12:06:48.535Z,3.60
2023-02-01T12:12:40.964Z,3.78
2023-02-01T12:18:20.998Z,4.18
2023-02-01T12:24:01.182Z,3.35
2023-02-01T12:29:26.068Z,3.47
2023-02-01T12:34:54.008Z,4.25
2023-02-01T12:40:34.767Z,3.55
2023-02-01T12:46:02.176Z,3.90
2023-02-01T12:51:32.792Z,4.55
2023-02-01T12:57:03.165Z,5.00
2023-02-01T13:02:34.181Z,4.93
2023-02-01T13:08:06.083Z,4.47
2023-02-01T13:13:47.162Z,5.20
2023-02-01T13:19:34.045Z,4.35
2023-02-01T13:25:08.790Z,4.28
2023-02-01T13:30:56.598Z,4.43
2023-02-01T13:36:57.298Z,4.22
2023-02-01T13:42:32.522Z,3.47
2023-02-01T13:47:57.410Z,3.83
2023-02-01T13:53:37.783Z,4.28
2023-02-01T13:59:37.971Z,3.38
2023-02-01T14:04:59.812Z,3.80
2023-02-01T14:10:52.843Z,3.10
2023-02-01T14:16:17.699Z,3.28
2023-02-01T14:21:51.339Z,3.15
2023-02-01T14:27:13.156Z,3.20
2023-02-01T14:32:38.992Z,3.30
2023-02-01T14:38:02.671Z,2.83
2023-02-01T14:43:59.439Z,3.70
2023-02-01T14:49:21.361Z,2.92
2023-02-01T14:54:47.281Z,2.85
2023-02-01T15:00:19.513Z,3.17
2023-02-01T15:05:41.365Z,3.25
2023-02-01T15:11:11.616Z,3.38
2023-02-01T15:16:33.426Z,2.50
2023-02-01T15:21:57.815Z,3.28
2023-02-01T15:27:19.680Z,3.40
2023-02-01T15:32:41.541Z,3.00
2023-02-01T15:38:25.150Z,2.60
2023-02-01T15:43:55.899Z,2.97
2023-02-01T15:49:31.929Z,2.63
2023-02-01T15:54:57.666Z,2.90
2023-02-01T16:00:19.654Z,3.63
2023-02-01T16:05:43.961Z,3.63
2023-02-01T16:11:26.608Z,3.28
2023-02-01T16:16:48.711Z,3.58
2023-02-01T16:22:10.537Z,2.95
2023-02-01T16:27:32.385Z,3.63
2023-02-01T16:32:58.989Z,3.28
2023-02-01T16:38:21.155Z,3.60
2023-02-01T16:43:43.126Z,3.63
2023-02-01T16:49:04.956Z,3.95
2023-02-01T16:54:26.913Z,4.18
2023-02-01T16:59:49.049Z,4.28
2023-02-01T17:05:10.971Z,3.78
2023-02-01T17:10:34.357Z,3.95
2023-02-01T17:16:01.000Z,3.95
2023-02-01T17:21:23.558Z,4.32
2023-02-01T17:26:46.970Z,4.35
2023-02-01T17:32:17.330Z,4.72
2023-02-01T17:37:39.242Z,4.32
2023-02-01T17:43:01.129Z,4.38
2023-02-01T17:48:23.360Z,4.70
2023-02-01T17:53:45.750Z,3.65
2023-02-01T17:59:09.575Z,5.07
2023-02-01T18:04:31.726Z,4.45
2023-02-01T18:09:53.733Z,4.53
2023-02-01T18:15:22.660Z,4.40
2023-02-01T18:20:46.323Z,4.72
2023-02-01T18:26:11.633Z,4.72
2023-02-01T18:31:34.567Z,5.75
2023-02-01T18:36:56.635Z,3.90
2023-02-01T18:42:18.489Z,3.95
2023-02-01T18:47:40.348Z,4.05
2023-02-01T18:53:06.390Z,4.13
2023-02-01T18:58:28.661Z,5.78
2023-02-01T19:03:53.322Z,4.82
2023-02-01T19:09:19.184Z,3.92
2023-02-01T19:14:41.027Z,4.38
2023-02-01T19:20:03.517Z,4.40
2023-02-01T19:25:28.504Z,4.40
2023-02-01T19:30:50.509Z,4.38
2023-02-01T19:36:12.555Z,4.65
2023-02-01T19:41:34.415Z,3.92
2023-02-01T19:46:56.616Z,4.03
2023-02-01T19:52:18.501Z,3.88
2023-02-01T19:57:40.839Z,4.57
2023-02-01T20:03:01.893Z,4.40
2023-02-01T20:08:24.475Z,3.75
2023-02-01T20:13:46.353Z,4.35
2023-02-01T20:19:09.913Z,4.10
2023-02-01T20:24:31.819Z,4.97
2023-02-01T20:29:54.537Z,5.45
2023-02-01T20:35:16.945Z,4.35
2023-02-01T20:40:38.846Z,4.97
2023-02-01T20:46:01.150Z,5.43
2023-02-01T20:51:23.049Z,4.85
2023-02-01T20:56:44.962Z,5.22
2023-02-01T21:02:06.865Z,5.38
2023-02-01T21:07:28.773Z,4.88
2023-02-01T21:13:01.055Z,5.05
2023-02-01T21:18:26.574Z,5.18
2023-02-01T21:23:48.549Z,5.28
2023-02-01T21:29:13.660Z,4.65
2023-02-01T21:34:36.243Z,5.00
2023-02-01T21:39:58.217Z,4.53
2023-02-01T21:45:20.079Z,4.82
2023-02-01T21:50:41.959Z,3.78
2023-02-01T21:56:03.969Z,4.82
2023-02-01T22:01:25.837Z,4.38
2023-02-01T22:06:47.755Z,4.55
2023-02-01T22:12:13.809Z,4.25
2023-02-01T22:17:35.775Z,4.50
2023-02-01T22:22:57.628Z,4.35
2023-02-01T22:28:31.964Z,5.00
2023-02-01T22:33:55.566Z,4.43
2023-02-01T22:39:17.488Z,4.43
2023-02-01T22:44:40.731Z,4.65
2023-02-01T22:50:03.554Z,4.88
2023-02-01T22:55:25.684Z,4.75
2023-02-01T23:00:47.695Z,4.55
2023-02-01T23:06:09.584Z,4.57
2023-02-01T23:11:31.737Z,3.95
2023-02-01T23:16:53.589Z,3.55
2023-02-01T23:22:15.484Z,3.45
2023-02-01T23:27:37.713Z,2.78
2023-02-01T23:32:59.639Z,3.30
2023-02-01T23:38:21.523Z,4.20
2023-02-01T23:43:43.876Z,3.90
2023-02-01T23:49:07.837Z,4.03
2023-02-01T23:54:29.707Z,5.10
2023-02-01T23:59:51.572Z,4.50
